Karelia II — UFMR — position and weather

sailwx.info

Track history (hours):
 
Tides and Currents Weather Stations Pressure Air Temp Water Temp Dewpoint Dewpoint Depression Visibility Wind Speed Wind Dir Waves Ship Positions

Karelia II

Last reported at 2017-Oct-29 07:51 UTC. Time now 2017-Nov-21 12:06 UTC.
Position N 70°41' E 020°27'.
Warning: this ship's position is 23 days out of date.

Length 60 m; draft 8 m.

Type: Fishing. MMSI: 273425330.

Date/timePositionNaut miles runAvg speedWind from/ knotsBaromVisibWave heightAir tempDewpointWater temp
2017-Oct-29 07:51N 70°41' E 020°27'3 9.5
2017-Oct-29 07:30N 70°38' E 020°28'5 9.7
2017-Oct-29 07:00N 70°33' E 020°28'510.0
2017-Oct-29 06:30N 70°28' E 020°29'510.5
2017-Oct-29 06:00N 70°23' E 020°25'510.4
2017-Oct-29 05:29N 70°18' E 020°22'510.8
2017-Oct-29 05:00N 70°13' E 020°18'611.1
2017-Oct-29 04:30N 70°07' E 020°14'511.0
2017-Oct-29 04:00N 70°02' E 020°06'33 3.6
2017-Oct-28 19:00N 69°40' E 018°58'0 0.0
2017-Oct-28 18:30N 69°40' E 018°58'0 0.0
2017-Oct-28 18:00N 69°40' E 018°58'0 0.0
2017-Oct-28 17:30N 69°40' E 018°58'0 0.0
2017-Oct-28 17:00N 69°40' E 018°58'0 0.0
2017-Oct-28 16:30N 69°40' E 018°58'1 2.6
2017-Oct-28 15:59N 69°41' E 018°60'0 0.0
2017-Oct-28 15:29N 69°41' E 018°60'0 0.0
2017-Oct-28 14:59N 69°41' E 018°60'0 0.0
2017-Oct-28 14:29N 69°41' E 018°60'0 0.0
2017-Oct-28 13:59N 69°41' E 018°60'0 0.0
2017-Oct-28 13:29N 69°41' E 018°60'0 0.0
2017-Oct-28 12:59N 69°41' E 018°60'0 0.0
2017-Oct-28 12:29N 69°41' E 018°60'0 0.0
2017-Oct-28 11:59N 69°41' E 018°60'0 0.0
2017-Oct-28 11:29N 69°41' E 018°60'0 0.0
2017-Oct-28 10:59N 69°41' E 018°60'0 0.0
2017-Oct-28 10:29N 69°41' E 018°60'0 0.0
2017-Oct-28 09:59N 69°41' E 018°60'0 0.0
2017-Oct-28 09:29N 69°41' E 018°60'0 0.0
2017-Oct-28 08:59N 69°41' E 018°60'0 0.0
2017-Oct-28 08:29N 69°41' E 018°60'0 0.0
2017-Oct-28 07:59N 69°41' E 018°60'0 0.0
2017-Oct-28 07:29N 69°41' E 018°60'0 0.0
2017-Oct-28 06:59N 69°41' E 018°60'0 0.0
2017-Oct-28 06:29N 69°41' E 018°60'0 0.0
2017-Oct-28 05:59N 69°41' E 018°60'0 0.0
2017-Oct-28 05:29N 69°41' E 018°60'0 0.0
2017-Oct-28 04:59N 69°41' E 018°60'0 0.0
2017-Oct-28 04:29N 69°41' E 018°60'0 0.0
2017-Oct-28 03:59N 69°41' E 018°60'0 0.0
2017-Oct-28 03:29N 69°41' E 018°60'0 0.0
2017-Oct-28 02:59N 69°41' E 018°60'0 0.0
2017-Oct-28 02:29N 69°41' E 018°60'0 0.0
2017-Oct-28 01:59N 69°41' E 018°60'0 0.0
2017-Oct-28 01:29N 69°41' E 018°60'0 0.0
2017-Oct-28 00:59N 69°41' E 018°60'0 0.0
2017-Oct-28 00:29N 69°41' E 018°60'0 0.0
2017-Oct-27 23:56N 69°41' E 018°60'0 0.0
2017-Oct-27 23:29N 69°41' E 018°60'0 0.0
2017-Oct-27 22:59N 69°41' E 018°60'0 0.0
2017-Oct-27 22:29N 69°41' E 018°60'0 0.0
2017-Oct-27 21:59N 69°41' E 018°60'0 0.0
2017-Oct-27 21:29N 69°41' E 018°60'0 0.0
2017-Oct-27 20:59N 69°41' E 018°60'0 0.0
2017-Oct-27 20:29N 69°41' E 018°60'0 0.0
2017-Oct-27 19:59N 69°41' E 018°60'0 0.0
2017-Oct-27 19:29N 69°41' E 018°60'0 0.0
2017-Oct-27 18:59N 69°41' E 018°60'0 0.0
2017-Oct-27 18:29N 69°41' E 018°60'0 0.0
2017-Oct-27 17:59N 69°41' E 018°60'0 0.0
2017-Oct-27 17:29N 69°41' E 018°60'0 0.0
2017-Oct-27 16:59N 69°41' E 018°60'0 0.0
2017-Oct-27 16:29N 69°41' E 018°60'0 0.0
2017-Oct-27 15:59N 69°41' E 018°60'0 0.0
2017-Oct-27 15:29N 69°41' E 018°60'0 0.0
2017-Oct-27 14:59N 69°41' E 018°60'0 0.0
2017-Oct-27 14:29N 69°41' E 018°60'0 0.0
2017-Oct-27 13:59N 69°41' E 018°60'0 0.0
2017-Oct-27 13:29N 69°41' E 018°60'0 0.0
2017-Oct-27 12:59N 69°41' E 018°60'0 0.0
2017-Oct-27 12:29N 69°41' E 018°60'0 0.0
2017-Oct-27 11:59N 69°41' E 018°60'0 0.0
2017-Oct-27 11:29N 69°41' E 018°60'0 0.0
2017-Oct-27 10:59N 69°41' E 018°60'0 0.0
2017-Oct-27 10:29N 69°41' E 018°60'0 0.0
2017-Oct-27 09:59N 69°41' E 018°60'0 0.0
2017-Oct-27 09:29N 69°41' E 018°60'0 0.0
2017-Oct-27 08:59N 69°41' E 018°60'0 0.0
2017-Oct-27 08:29N 69°41' E 018°60'0 0.0
2017-Oct-27 07:59N 69°41' E 018°60'0 0.0
2017-Oct-27 07:29N 69°41' E 018°60'0 0.0
2017-Oct-27 06:59N 69°41' E 018°60'0 0.0
2017-Oct-27 06:29N 69°41' E 018°60'0 0.0
2017-Oct-27 05:59N 69°41' E 018°60'0 0.0
2017-Oct-27 05:29N 69°41' E 018°60'0 0.0
2017-Oct-27 04:59N 69°41' E 018°60'0 0.0
2017-Oct-27 04:29N 69°41' E 018°60'0 0.0
2017-Oct-27 03:59N 69°41' E 018°60'0 0.0
2017-Oct-27 03:29N 69°41' E 018°60'0 0.0
2017-Oct-27 02:59N 69°41' E 018°60'0 0.0
2017-Oct-27 02:29N 69°41' E 018°60'0 0.0
2017-Oct-27 01:59N 69°41' E 018°60'0 0.0
2017-Oct-27 01:29N 69°41' E 018°60'0 0.0
2017-Oct-27 00:59N 69°41' E 018°60'0 0.0
2017-Oct-27 00:29N 69°41' E 018°60'0 0.0
2017-Oct-26 23:59N 69°41' E 018°60'0 0.0
2017-Oct-26 23:29N 69°41' E 018°60'0 0.0
2017-Oct-26 22:59N 69°41' E 018°60'0 0.0
2017-Oct-26 22:29N 69°41' E 018°60'0 0.0
2017-Oct-26 21:59N 69°41' E 018°60'0 0.0
2017-Oct-26 21:29N 69°41' E 018°60'0 0.0
2017-Oct-26 20:59N 69°41' E 018°60'0 0.0
2017-Oct-26 20:29N 69°41' E 018°60'0 0.0
2017-Oct-26 19:59N 69°41' E 018°60'0 0.0
2017-Oct-26 19:29N 69°41' E 018°60'0 0.0
2017-Oct-26 18:59N 69°41' E 018°60'0 0.0
2017-Oct-26 18:29N 69°41' E 018°60'0 0.0
2017-Oct-26 17:59N 69°41' E 018°60'0 0.0
2017-Oct-26 17:29N 69°41' E 018°60'0 0.0
2017-Oct-26 16:59N 69°41' E 018°60'0 0.0
2017-Oct-26 16:29N 69°41' E 018°60'0 0.0
2017-Oct-26 15:59N 69°41' E 018°60'0 0.0
2017-Oct-26 15:29N 69°41' E 018°60'0 0.0
2017-Oct-26 14:59N 69°41' E 018°60'0 0.0
2017-Oct-26 14:29N 69°41' E 018°60'0 0.0
2017-Oct-26 13:59N 69°41' E 018°60'0 0.0
2017-Oct-26 13:29N 69°41' E 018°60'0 0.0
2017-Oct-26 12:59N 69°41' E 018°60'0 0.0
2017-Oct-26 12:29N 69°41' E 018°60'0 0.0
2017-Oct-26 11:59N 69°41' E 018°60'0 0.0
2017-Oct-26 11:29N 69°41' E 018°60'0 0.0
2017-Oct-26 10:59N 69°41' E 018°60'0 0.0
2017-Oct-26 10:29N 69°41' E 018°60'0 0.0
2017-Oct-26 09:59N 69°41' E 018°60'0 0.0
2017-Oct-26 09:29N 69°41' E 018°60'0 0.0
2017-Oct-26 08:59N 69°41' E 018°60'0 0.0
2017-Oct-26 08:29N 69°41' E 018°60'0 0.0
2017-Oct-26 07:59N 69°41' E 018°60'0 0.0
2017-Oct-26 07:29N 69°41' E 018°60'0 0.0
2017-Oct-26 06:59N 69°41' E 018°60'0 0.0
2017-Oct-26 06:29N 69°41' E 018°60'0 0.0
2017-Oct-26 05:59N 69°41' E 018°60'0 0.0
2017-Oct-26 05:29N 69°41' E 018°60'0 0.0
2017-Oct-26 04:59N 69°41' E 018°60'0 0.0
2017-Oct-26 04:29N 69°41' E 018°60'0 0.0
2017-Oct-26 03:59N 69°41' E 018°60'0 0.0
2017-Oct-26 03:29N 69°41' E 018°60'0 0.0
2017-Oct-26 02:59N 69°41' E 018°60'0 0.0
2017-Oct-26 02:29N 69°41' E 018°60'0 0.0
2017-Oct-26 01:59N 69°41' E 018°60'0 0.0
2017-Oct-26 01:29N 69°41' E 018°60'0 0.0
2017-Oct-26 00:59N 69°41' E 018°60'0 0.0
2017-Oct-26 00:29N 69°41' E 018°60'0 0.0
2017-Oct-25 23:59N 69°41' E 018°60'0 0.0
2017-Oct-25 23:29N 69°41' E 018°60'0 0.0
2017-Oct-25 22:59N 69°41' E 018°60'0 0.0
2017-Oct-25 22:29N 69°41' E 018°60'0 0.0
2017-Oct-25 21:59N 69°41' E 018°60'0 0.0
2017-Oct-25 21:29N 69°41' E 018°60'0 0.0
2017-Oct-25 20:59N 69°41' E 018°60'0 0.0
2017-Oct-25 20:29N 69°41' E 018°60'0 0.0
2017-Oct-25 19:59N 69°41' E 018°60'0 0.0
2017-Oct-25 19:29N 69°41' E 018°60'0 0.0
2017-Oct-25 18:59N 69°41' E 018°60'0 0.0
2017-Oct-25 18:29N 69°41' E 018°60'0 0.0
2017-Oct-25 17:59N 69°41' E 018°60'0 0.0
2017-Oct-25 17:29N 69°41' E 018°60'0 0.0
2017-Oct-25 16:59N 69°41' E 018°60'0 0.0
2017-Oct-25 16:29N 69°41' E 018°60'0 0.0
2017-Oct-25 15:59N 69°41' E 018°60'0 0.0
2017-Oct-25 15:29N 69°41' E 018°60'0 0.0
2017-Oct-25 14:59N 69°41' E 018°60'0 0.0
2017-Oct-25 14:29N 69°41' E 018°60'0 0.0
2017-Oct-25 13:59N 69°41' E 018°60'0 0.0
2017-Oct-25 13:29N 69°41' E 018°60'0 0.0
2017-Oct-25 12:59N 69°41' E 018°60'0 0.0
2017-Oct-25 12:29N 69°41' E 018°60'0 0.0
2017-Oct-25 11:59N 69°41' E 018°60'0 0.0
2017-Oct-25 11:26N 69°41' E 018°60'0 0.0
2017-Oct-25 10:59N 69°41' E 018°60'0 0.0
2017-Oct-25 10:29N 69°41' E 018°60'0 0.0
2017-Oct-25 09:59N 69°41' E 018°60'0 0.0
2017-Oct-25 09:29N 69°41' E 018°60'0 0.0
2017-Oct-25 08:59N 69°41' E 018°60'0 0.0
2017-Oct-25 08:29N 69°41' E 018°60'0 0.0
2017-Oct-25 07:59N 69°41' E 018°60'0 0.0
2017-Oct-25 07:29N 69°41' E 018°60'0 0.0
2017-Oct-25 06:59N 69°41' E 018°60'0 0.0
2017-Oct-25 06:29N 69°41' E 018°60'0 0.0
2017-Oct-25 05:59N 69°41' E 018°60'0 0.0
2017-Oct-25 05:29N 69°41' E 018°60'0 0.0
2017-Oct-25 04:59N 69°41' E 018°60'0 0.0
2017-Oct-25 04:29N 69°41' E 018°60'0 0.0
2017-Oct-25 03:59N 69°41' E 018°60'0 0.0
2017-Oct-25 03:29N 69°41' E 018°60'0 0.0
2017-Oct-25 02:59N 69°41' E 018°60'0 0.0
2017-Oct-25 02:29N 69°41' E 018°60'0 0.0
2017-Oct-25 01:59N 69°41' E 018°60'0 0.0
2017-Oct-25 01:29N 69°41' E 018°60'0 0.0
2017-Oct-25 00:59N 69°41' E 018°60'0 0.0
2017-Oct-25 00:29N 69°41' E 018°60'0 0.0
2017-Oct-24 23:59N 69°41' E 018°60'0 0.0
2017-Oct-24 23:29N 69°41' E 018°60'0 0.0
2017-Oct-24 22:58N 69°41' E 018°60'0 0.0
2017-Oct-24 22:28N 69°41' E 018°60'0 0.0
2017-Oct-24 21:58N 69°41' E 018°60'0 0.0
2017-Oct-24 21:28N 69°41' E 018°60'0 0.0
2017-Oct-24 20:58N 69°41' E 018°60'0 0.0
2017-Oct-24 20:28N 69°41' E 018°60'0 0.0
2017-Oct-24 19:58N 69°41' E 018°60'0 0.0
2017-Oct-24 19:28N 69°41' E 018°60'0 0.0
2017-Oct-24 18:58N 69°41' E 018°60'0 0.0
2017-Oct-24 18:28N 69°41' E 018°60'0 0.0
2017-Oct-24 17:58N 69°41' E 018°60'0 0.0
2017-Oct-24 17:28N 69°41' E 018°60'0 0.0
2017-Oct-24 16:58N 69°41' E 018°60'0 0.0
2017-Oct-24 16:28N 69°41' E 018°60'0 0.0
2017-Oct-24 15:58N 69°41' E 018°60'0 0.0
2017-Oct-24 15:28N 69°41' E 018°60'0 0.0
2017-Oct-24 14:58N 69°41' E 018°60'0 0.0
2017-Oct-24 14:28N 69°41' E 018°60'0 0.0
2017-Oct-24 13:58N 69°41' E 018°60'0 0.0
2017-Oct-24 13:28N 69°41' E 018°60'0 0.0
2017-Oct-24 12:58N 69°41' E 018°60'0 0.0
2017-Oct-24 12:28N 69°41' E 018°60'0 0.0
2017-Oct-24 11:58N 69°41' E 018°60'0 0.0
2017-Oct-24 11:28N 69°41' E 018°60'0 0.0
2017-Oct-24 10:58N 69°41' E 018°60'0 0.0
2017-Oct-24 10:28N 69°41' E 018°60'0 0.0
2017-Oct-24 09:58N 69°41' E 018°60'0 0.0
2017-Oct-24 09:28N 69°41' E 018°60'0 0.0
2017-Oct-24 08:58N 69°41' E 018°60'0 0.0
2017-Oct-24 08:28N 69°41' E 018°60'0 0.0
2017-Oct-24 07:58N 69°41' E 018°60'0 0.0
2017-Oct-24 07:28N 69°41' E 018°60'0 0.0
2017-Oct-24 06:58N 69°41' E 018°60'0 0.0
2017-Oct-24 06:28N 69°41' E 018°60'0 0.0
2017-Oct-24 05:58N 69°41' E 018°60'0 0.0
2017-Oct-24 05:28N 69°41' E 018°60'0 0.0
2017-Oct-24 04:58N 69°41' E 018°60'0 0.0
2017-Oct-24 04:28N 69°41' E 018°60'0 0.0
2017-Oct-24 03:58N 69°41' E 018°60'0 0.0
2017-Oct-24 03:28N 69°41' E 018°60'0 0.0
2017-Oct-24 02:58N 69°41' E 018°60'0 0.0
2017-Oct-24 02:28N 69°41' E 018°60'0 0.0
2017-Oct-24 01:58N 69°41' E 018°60'0 0.0
2017-Oct-24 01:28N 69°41' E 018°60'0 0.0
2017-Oct-24 00:58N 69°41' E 018°60'0 0.0
2017-Oct-24 00:28N 69°41' E 018°60'0 0.0
2017-Oct-23 23:58N 69°41' E 018°60'0 0.0
2017-Oct-23 23:28N 69°41' E 018°60'0 0.0
2017-Oct-23 22:58N 69°41' E 018°60'0 0.0
2017-Oct-23 22:28N 69°41' E 018°60'0 0.0
2017-Oct-23 21:58N 69°41' E 018°60'0 0.0
2017-Oct-23 21:28N 69°41' E 018°60'0 0.0
2017-Oct-23 20:58N 69°41' E 018°60'0 0.0
2017-Oct-23 20:28N 69°41' E 018°60'0 0.0
2017-Oct-23 19:58N 69°41' E 018°60'0 0.0
2017-Oct-23 19:28N 69°41' E 018°60'0 0.0
2017-Oct-23 18:58N 69°41' E 018°60'0 0.0
2017-Oct-23 18:28N 69°41' E 018°60'0 0.0
2017-Oct-23 17:58N 69°41' E 018°60'0 0.0
2017-Oct-23 17:28N 69°41' E 018°60'0 0.0
2017-Oct-23 16:58N 69°41' E 018°60'0 0.0
2017-Oct-23 16:28N 69°41' E 018°60'0 0.0
2017-Oct-23 15:58N 69°41' E 018°60'0 0.0
2017-Oct-23 15:28N 69°41' E 018°60'0 0.0
2017-Oct-23 14:58N 69°41' E 018°60'0 0.0
2017-Oct-23 14:28N 69°41' E 018°60'0 0.0
2017-Oct-23 13:58N 69°41' E 018°60'0 0.0
2017-Oct-23 13:28N 69°41' E 018°60'0 0.0
2017-Oct-23 12:58N 69°41' E 018°60'0 0.0
2017-Oct-23 12:28N 69°41' E 018°60'0 0.0
2017-Oct-23 11:58N 69°41' E 018°60'0 0.0
2017-Oct-23 11:28N 69°41' E 018°60'0 0.0
2017-Oct-23 10:58N 69°41' E 018°60'0 0.0
2017-Oct-23 10:28N 69°41' E 018°60'0 0.0
2017-Oct-23 09:58N 69°41' E 018°60'0 0.0
2017-Oct-23 09:28N 69°41' E 018°60'0 0.0
2017-Oct-23 08:58N 69°41' E 018°60'0 0.0
2017-Oct-23 08:28N 69°41' E 018°60'0 0.0
2017-Oct-23 07:58N 69°41' E 018°60'0 0.0
2017-Oct-23 07:28N 69°41' E 018°60'0 0.0
2017-Oct-23 06:58N 69°41' E 018°60'0 0.0
2017-Oct-23 06:28N 69°41' E 018°60'0 0.0
2017-Oct-23 05:58N 69°41' E 018°60'0 0.0
2017-Oct-23 05:28N 69°41' E 018°60'0 0.0
2017-Oct-23 04:58N 69°41' E 018°60'0 0.0
2017-Oct-23 04:28N 69°41' E 018°60'0 0.0
2017-Oct-23 03:58N 69°41' E 018°60'0 0.0
2017-Oct-23 03:28N 69°41' E 018°60'0 0.0
2017-Oct-23 02:58N 69°41' E 018°60'0 0.0
2017-Oct-23 02:28N 69°41' E 018°60'0 0.0
2017-Oct-23 01:58N 69°41' E 018°60'0 0.0
2017-Oct-23 01:28N 69°41' E 018°60'0 0.0
2017-Oct-23 00:58N 69°41' E 018°60'0 0.0
2017-Oct-23 00:28N 69°41' E 018°60'0 0.0
2017-Oct-22 23:58N 69°41' E 018°60'0 0.0
2017-Oct-22 23:28N 69°41' E 018°60'0 0.0
2017-Oct-22 22:58N 69°41' E 018°60'0 0.0
2017-Oct-22 22:28N 69°41' E 018°60'0 0.0
2017-Oct-22 21:58N 69°41' E 018°60'0 0.0
2017-Oct-22 21:28N 69°41' E 018°60'0 0.0
2017-Oct-22 20:58N 69°41' E 018°60'0 0.0
2017-Oct-22 20:28N 69°41' E 018°60'0 0.0
2017-Oct-22 19:58N 69°41' E 018°60'0 0.0
2017-Oct-22 19:28N 69°41' E 018°60'0 0.0
2017-Oct-22 18:58N 69°41' E 018°60'0 0.0
2017-Oct-22 18:28N 69°41' E 018°60'0 0.0
2017-Oct-22 17:58N 69°41' E 018°60'0 0.0
2017-Oct-22 17:28N 69°41' E 018°60'0 0.0
2017-Oct-22 16:58N 69°41' E 018°60'0 0.0
2017-Oct-22 16:28N 69°41' E 018°60'0 0.0
2017-Oct-22 15:58N 69°41' E 018°60'0 0.0
2017-Oct-22 15:28N 69°41' E 018°60'0 0.0
2017-Oct-22 14:58N 69°41' E 018°60'0 0.0
2017-Oct-22 14:28N 69°41' E 018°60'0 0.0
2017-Oct-22 13:58N 69°41' E 018°60'0 0.0
2017-Oct-22 13:28N 69°41' E 018°60'0 0.0
2017-Oct-22 12:58N 69°41' E 018°60'0 0.0
2017-Oct-22 12:28N 69°41' E 018°60'0 0.0
2017-Oct-22 11:58N 69°41' E 018°60'0 0.0
2017-Oct-22 11:28N 69°41' E 018°60'0 0.0
2017-Oct-22 10:58N 69°41' E 018°60'0 0.0
2017-Oct-22 10:28N 69°41' E 018°60'0 0.0
2017-Oct-22 09:58N 69°41' E 018°60'0 0.0
2017-Oct-22 09:28N 69°41' E 018°60'0 0.0
2017-Oct-22 08:58N 69°41' E 018°60'0 0.0
2017-Oct-22 08:28N 69°41' E 018°60'0 0.0
2017-Oct-22 07:58N 69°41' E 018°60'0 0.0
2017-Oct-22 07:28N 69°41' E 018°60'0 0.0
2017-Oct-22 06:58N 69°41' E 018°60'0 0.0
2017-Oct-22 06:28N 69°41' E 018°60'0 0.0
2017-Oct-22 05:58N 69°41' E 018°60'0 0.0
2017-Oct-22 05:29N 69°41' E 018°60'0 0.0
2017-Oct-22 04:58N 69°41' E 018°60'0 0.0
2017-Oct-22 04:28N 69°41' E 018°60'0 0.0
2017-Oct-22 03:58N 69°41' E 018°60'0 0.0
2017-Oct-22 03:28N 69°41' E 018°60'0 0.0
2017-Oct-22 02:58N 69°41' E 018°60'0 0.0
2017-Oct-22 02:28N 69°41' E 018°60'0 0.0
2017-Oct-22 01:58N 69°41' E 018°60'0 0.0
2017-Oct-22 01:28N 69°41' E 018°60'0 0.0
2017-Oct-22 00:58N 69°41' E 018°60'0 0.0
2017-Oct-22 00:28N 69°41' E 018°60'0 0.0
2017-Oct-21 23:58N 69°41' E 018°60'0 0.0
2017-Oct-21 23:28N 69°41' E 018°60'0 0.0
2017-Oct-21 22:58N 69°41' E 018°60'0 0.0
2017-Oct-21 22:28N 69°41' E 018°60'0 0.0
2017-Oct-21 21:58N 69°41' E 018°60'0 0.0
2017-Oct-21 21:28N 69°41' E 018°60'0 0.0
2017-Oct-21 20:58N 69°41' E 018°60'0 0.0
2017-Oct-21 20:28N 69°41' E 018°60'0 0.0
2017-Oct-21 19:58N 69°41' E 018°60'0 0.0
2017-Oct-21 19:28N 69°41' E 018°60'0 0.0
2017-Oct-21 18:58N 69°41' E 018°60'0 0.0
2017-Oct-21 18:28N 69°41' E 018°60'0 0.0
2017-Oct-21 17:58N 69°41' E 018°60'0 0.0
2017-Oct-21 17:28N 69°41' E 018°60'0 0.0
2017-Oct-21 16:58N 69°41' E 018°60'0 0.0
2017-Oct-21 16:28N 69°41' E 018°60'0 0.0
2017-Oct-21 15:58N 69°41' E 018°60'0 0.0
2017-Oct-21 15:28N 69°41' E 018°60'0 0.0
2017-Oct-21 14:58N 69°41' E 018°60'0 0.0
2017-Oct-21 14:28N 69°41' E 018°60'0 0.0
2017-Oct-21 13:28N 69°41' E 018°60'0 0.0
2017-Oct-21 12:58N 69°41' E 018°60'0 0.0
2017-Oct-21 12:28N 69°41' E 018°60'0 0.0
2017-Oct-21 11:58N 69°41' E 018°60'0 0.0
2017-Oct-21 11:28N 69°41' E 018°60'0 0.0
2017-Oct-21 10:58N 69°41' E 018°60'0 0.0
2017-Oct-21 10:28N 69°41' E 018°60'0 0.0
2017-Oct-21 09:58N 69°41' E 018°60'0 0.0
2017-Oct-21 09:28N 69°41' E 018°60'0 0.0
2017-Oct-21 08:58N 69°41' E 018°60'0 0.0
2017-Oct-21 08:28N 69°41' E 018°60'0 0.0
2017-Oct-21 07:58N 69°41' E 018°60'0 0.0
2017-Oct-21 07:28N 69°41' E 018°60'0 0.0
2017-Oct-21 06:58N 69°41' E 018°60'0 0.0
2017-Oct-21 06:28N 69°41' E 018°60'0 0.0
2017-Oct-21 05:58N 69°41' E 018°60'0 0.0
2017-Oct-21 05:28N 69°41' E 018°60'0 0.0
2017-Oct-21 04:58N 69°41' E 018°60'0 0.0
2017-Oct-21 04:28N 69°41' E 018°60'0 0.0
2017-Oct-21 03:58N 69°41' E 018°60'0 0.0
2017-Oct-21 03:28N 69°41' E 018°60'0 0.0
2017-Oct-21 02:58N 69°41' E 018°60'0 0.0
2017-Oct-21 02:28N 69°41' E 018°60'0 0.0
2017-Oct-21 01:58N 69°41' E 018°60'0 0.0
2017-Oct-21 01:28N 69°41' E 018°60'0 0.0
2017-Oct-21 00:58N 69°41' E 018°60'0 0.0
2017-Oct-21 00:28N 69°41' E 018°60'0 0.0
2017-Oct-20 23:58N 69°41' E 018°60'0 0.0
2017-Oct-20 23:28N 69°41' E 018°60'0 0.0
2017-Oct-20 22:58N 69°41' E 018°60'0 0.0
2017-Oct-20 22:28N 69°41' E 018°60'0 0.0
2017-Oct-20 21:58N 69°41' E 018°60'0 0.0
2017-Oct-20 21:28N 69°41' E 018°60'0 0.0
2017-Oct-20 20:58N 69°41' E 018°60'0 0.0
2017-Oct-20 20:28N 69°41' E 018°60'0 0.0
2017-Oct-20 19:58N 69°41' E 018°60'0 0.0
2017-Oct-20 19:28N 69°41' E 018°60'0 0.0
2017-Oct-20 18:58N 69°41' E 018°60'0 0.0
2017-Oct-20 18:28N 69°41' E 018°60'0 0.0
2017-Oct-20 17:58N 69°41' E 018°60'0 0.0
2017-Oct-20 17:28N 69°41' E 018°60'0 0.0
2017-Oct-20 16:58N 69°41' E 018°60'0 0.0
2017-Oct-20 16:28N 69°41' E 018°60'0 0.0
2017-Oct-20 15:58N 69°41' E 018°60'0 0.0
2017-Oct-20 15:28N 69°41' E 018°60'0 0.0
2017-Oct-20 14:58N 69°41' E 018°60'0 0.0
2017-Oct-20 13:58N 69°41' E 018°60'0 0.0
2017-Oct-20 13:28N 69°41' E 018°60'0 0.0
2017-Oct-20 12:58N 69°41' E 018°60'0 0.0
2017-Oct-20 12:28N 69°41' E 018°60'0 0.0
2017-Oct-20 11:58N 69°41' E 018°60'0 0.0
2017-Oct-20 11:28N 69°41' E 018°60'0 0.0
2017-Oct-20 10:58N 69°41' E 018°60'0 0.0
2017-Oct-20 10:28N 69°41' E 018°60'0 0.0
2017-Oct-20 09:58N 69°41' E 018°60'0 0.0
2017-Oct-20 09:31N 69°41' E 018°60'0 0.0
2017-Oct-20 09:01N 69°41' E 018°60'0 0.0
2017-Oct-20 08:31N 69°41' E 018°60'0 0.0
2017-Oct-20 08:01N 69°41' E 018°60'0 0.0
2017-Oct-20 07:31N 69°41' E 018°60'0 0.0
2017-Oct-20 07:00N 69°41' E 018°60'0 0.0
2017-Oct-20 06:30N 69°41' E 018°60'0 0.0
2017-Oct-20 06:01N 69°41' E 018°60'0 0.0
2017-Oct-20 05:30N 69°41' E 018°60'0 0.0
2017-Oct-20 05:00N 69°41' E 018°60'0 0.0
2017-Oct-20 04:30N 69°41' E 018°60'0 0.0
2017-Oct-20 04:00N 69°41' E 018°60'0 0.0
2017-Oct-20 03:30N 69°41' E 018°60'0 0.0
2017-Oct-20 03:00N 69°41' E 018°60'0 0.0
2017-Oct-20 02:30N 69°41' E 018°60'0 0.0
2017-Oct-20 02:00N 69°41' E 018°60'0 0.0
2017-Oct-20 01:30N 69°41' E 018°60'0 0.0
2017-Oct-20 01:00N 69°41' E 018°60'0 0.0
2017-Oct-20 00:30N 69°41' E 018°60'0 0.0
2017-Oct-20 00:00N 69°41' E 018°60'0 0.0
2017-Oct-19 23:30N 69°41' E 018°60'0 0.0
2017-Oct-19 23:00N 69°41' E 018°60'0 0.0
2017-Oct-19 22:30N 69°41' E 018°60'0 0.0
2017-Oct-19 22:00N 69°41' E 018°60'0 0.0
2017-Oct-19 21:30N 69°41' E 018°60'0 0.0
2017-Oct-19 21:00N 69°41' E 018°60'0 0.0
2017-Oct-19 20:30N 69°41' E 018°60'0 0.0
2017-Oct-19 20:00N 69°41' E 018°60'0 0.0
2017-Oct-19 19:30N 69°41' E 018°60'0 0.0
2017-Oct-19 19:00N 69°41' E 018°60'0 0.0
2017-Oct-19 18:30N 69°41' E 018°60'0 0.0
2017-Oct-19 18:00N 69°41' E 018°60'0 0.0
2017-Oct-19 17:30N 69°41' E 018°60'0 0.0
2017-Oct-19 17:00N 69°41' E 018°60'0 0.0
2017-Oct-19 16:30N 69°41' E 018°60'0 0.0
2017-Oct-19 16:00N 69°41' E 018°60'0 0.0
2017-Oct-19 15:30N 69°41' E 018°60'0 0.0
2017-Oct-19 15:00N 69°41' E 018°60'0 0.0
2017-Oct-19 14:30N 69°41' E 018°60'0 0.0
2017-Oct-19 14:00N 69°41' E 018°60'0 0.0
2017-Oct-19 13:30N 69°41' E 018°60'0 0.0
2017-Oct-19 13:00N 69°41' E 018°60'0 0.0
2017-Oct-19 12:30N 69°41' E 018°60'0 0.0
2017-Oct-19 12:00N 69°41' E 018°60'0 0.0
2017-Oct-19 11:30N 69°41' E 018°60'0 0.0
2017-Oct-19 11:00N 69°41' E 018°60'0 0.0
2017-Oct-19 10:30N 69°41' E 018°60'0 0.0
2017-Oct-19 10:00N 69°41' E 018°60'0 0.0
2017-Oct-19 09:30N 69°41' E 018°60'0 0.0
2017-Oct-19 09:00N 69°41' E 018°60'0 0.0
2017-Oct-19 08:30N 69°41' E 018°60'0 0.0
2017-Oct-19 08:00N 69°41' E 018°60'  
Track history (hours):
 
Tides and Currents Weather Stations Pressure Air Temp Water Temp Dewpoint Dewpoint Depression Visibility Wind Speed Wind Dir Waves Ship Positions

Karelia II

Last reported at 2017-Oct-29 07:51 UTC. Time now 2017-Nov-21 12:06 UTC.
Position N 70°41' E 020°27'.
Warning: this ship's position is 23 days out of date.

Length 60 m; draft 8 m.

Type: Fishing. MMSI: 273425330.

Date/timePositionNaut miles runAvg speedWind from/ knotsBaromVisibWave heightAir tempDewpointWater temp
2017-Oct-29 07:51N 70°41' E 020°27'3 9.5
2017-Oct-29 07:30N 70°38' E 020°28'5 9.7
2017-Oct-29 07:00N 70°33' E 020°28'510.0
2017-Oct-29 06:30N 70°28' E 020°29'510.5
2017-Oct-29 06:00N 70°23' E 020°25'510.4
2017-Oct-29 05:29N 70°18' E 020°22'510.8
2017-Oct-29 05:00N 70°13' E 020°18'611.1
2017-Oct-29 04:30N 70°07' E 020°14'511.0
2017-Oct-29 04:00N 70°02' E 020°06'33 3.6
2017-Oct-28 19:00N 69°40' E 018°58'0 0.0
2017-Oct-28 18:30N 69°40' E 018°58'0 0.0
2017-Oct-28 18:00N 69°40' E 018°58'0 0.0
2017-Oct-28 17:30N 69°40' E 018°58'0 0.0
2017-Oct-28 17:00N 69°40' E 018°58'0 0.0
2017-Oct-28 16:30N 69°40' E 018°58'1 2.6
2017-Oct-28 15:59N 69°41' E 018°60'0 0.0
2017-Oct-28 15:29N 69°41' E 018°60'0 0.0
2017-Oct-28 14:59N 69°41' E 018°60'0 0.0
2017-Oct-28 14:29N 69°41' E 018°60'0 0.0
2017-Oct-28 13:59N 69°41' E 018°60'0 0.0
2017-Oct-28 13:29N 69°41' E 018°60'0 0.0
2017-Oct-28 12:59N 69°41' E 018°60'0 0.0
2017-Oct-28 12:29N 69°41' E 018°60'0 0.0
2017-Oct-28 11:59N 69°41' E 018°60'0 0.0
2017-Oct-28 11:29N 69°41' E 018°60'0 0.0
2017-Oct-28 10:59N 69°41' E 018°60'0 0.0
2017-Oct-28 10:29N 69°41' E 018°60'0 0.0
2017-Oct-28 09:59N 69°41' E 018°60'0 0.0
2017-Oct-28 09:29N 69°41' E 018°60'0 0.0
2017-Oct-28 08:59N 69°41' E 018°60'0 0.0
2017-Oct-28 08:29N 69°41' E 018°60'0 0.0
2017-Oct-28 07:59N 69°41' E 018°60'0 0.0
2017-Oct-28 07:29N 69°41' E 018°60'0 0.0
2017-Oct-28 06:59N 69°41' E 018°60'0 0.0
2017-Oct-28 06:29N 69°41' E 018°60'0 0.0
2017-Oct-28 05:59N 69°41' E 018°60'0 0.0
2017-Oct-28 05:29N 69°41' E 018°60'0 0.0
2017-Oct-28 04:59N 69°41' E 018°60'0 0.0
2017-Oct-28 04:29N 69°41' E 018°60'0 0.0
2017-Oct-28 03:59N 69°41' E 018°60'0 0.0
2017-Oct-28 03:29N 69°41' E 018°60'0 0.0
2017-Oct-28 02:59N 69°41' E 018°60'0 0.0
2017-Oct-28 02:29N 69°41' E 018°60'0 0.0
2017-Oct-28 01:59N 69°41' E 018°60'0 0.0
2017-Oct-28 01:29N 69°41' E 018°60'0 0.0
2017-Oct-28 00:59N 69°41' E 018°60'0 0.0
2017-Oct-28 00:29N 69°41' E 018°60'0 0.0
2017-Oct-27 23:56N 69°41' E 018°60'0 0.0
2017-Oct-27 23:29N 69°41' E 018°60'0 0.0
2017-Oct-27 22:59N 69°41' E 018°60'0 0.0
2017-Oct-27 22:29N 69°41' E 018°60'0 0.0
2017-Oct-27 21:59N 69°41' E 018°60'0 0.0
2017-Oct-27 21:29N 69°41' E 018°60'0 0.0
2017-Oct-27 20:59N 69°41' E 018°60'0 0.0
2017-Oct-27 20:29N 69°41' E 018°60'0 0.0
2017-Oct-27 19:59N 69°41' E 018°60'0 0.0
2017-Oct-27 19:29N 69°41' E 018°60'0 0.0
2017-Oct-27 18:59N 69°41' E 018°60'0 0.0
2017-Oct-27 18:29N 69°41' E 018°60'0 0.0
2017-Oct-27 17:59N 69°41' E 018°60'0 0.0
2017-Oct-27 17:29N 69°41' E 018°60'0 0.0
2017-Oct-27 16:59N 69°41' E 018°60'0 0.0
2017-Oct-27 16:29N 69°41' E 018°60'0 0.0
2017-Oct-27 15:59N 69°41' E 018°60'0 0.0
2017-Oct-27 15:29N 69°41' E 018°60'0 0.0
2017-Oct-27 14:59N 69°41' E 018°60'0 0.0
2017-Oct-27 14:29N 69°41' E 018°60'0 0.0
2017-Oct-27 13:59N 69°41' E 018°60'0 0.0
2017-Oct-27 13:29N 69°41' E 018°60'0 0.0
2017-Oct-27 12:59N 69°41' E 018°60'0 0.0
2017-Oct-27 12:29N 69°41' E 018°60'0 0.0
2017-Oct-27 11:59N 69°41' E 018°60'0 0.0
2017-Oct-27 11:29N 69°41' E 018°60'0 0.0
2017-Oct-27 10:59N 69°41' E 018°60'0 0.0
2017-Oct-27 10:29N 69°41' E 018°60'0 0.0
2017-Oct-27 09:59N 69°41' E 018°60'0 0.0
2017-Oct-27 09:29N 69°41' E 018°60'0 0.0
2017-Oct-27 08:59N 69°41' E 018°60'0 0.0
2017-Oct-27 08:29N 69°41' E 018°60'0 0.0
2017-Oct-27 07:59N 69°41' E 018°60'0 0.0
2017-Oct-27 07:29N 69°41' E 018°60'0 0.0
2017-Oct-27 06:59N 69°41' E 018°60'0 0.0
2017-Oct-27 06:29N 69°41' E 018°60'0 0.0
2017-Oct-27 05:59N 69°41' E 018°60'0 0.0
2017-Oct-27 05:29N 69°41' E 018°60'0 0.0
2017-Oct-27 04:59N 69°41' E 018°60'0 0.0
2017-Oct-27 04:29N 69°41' E 018°60'0 0.0
2017-Oct-27 03:59N 69°41' E 018°60'0 0.0
2017-Oct-27 03:29N 69°41' E 018°60'0 0.0
2017-Oct-27 02:59N 69°41' E 018°60'0 0.0
2017-Oct-27 02:29N 69°41' E 018°60'0 0.0
2017-Oct-27 01:59N 69°41' E 018°60'0 0.0
2017-Oct-27 01:29N 69°41' E 018°60'0 0.0
2017-Oct-27 00:59N 69°41' E 018°60'0 0.0
2017-Oct-27 00:29N 69°41' E 018°60'0 0.0
2017-Oct-26 23:59N 69°41' E 018°60'0 0.0
2017-Oct-26 23:29N 69°41' E 018°60'0 0.0
2017-Oct-26 22:59N 69°41' E 018°60'0 0.0
2017-Oct-26 22:29N 69°41' E 018°60'0 0.0
2017-Oct-26 21:59N 69°41' E 018°60'0 0.0
2017-Oct-26 21:29N 69°41' E 018°60'0 0.0
2017-Oct-26 20:59N 69°41' E 018°60'0 0.0
2017-Oct-26 20:29N 69°41' E 018°60'0 0.0
2017-Oct-26 19:59N 69°41' E 018°60'0 0.0
2017-Oct-26 19:29N 69°41' E 018°60'0 0.0
2017-Oct-26 18:59N 69°41' E 018°60'0 0.0
2017-Oct-26 18:29N 69°41' E 018°60'0 0.0
2017-Oct-26 17:59N 69°41' E 018°60'0 0.0
2017-Oct-26 17:29N 69°41' E 018°60'0 0.0
2017-Oct-26 16:59N 69°41' E 018°60'0 0.0
2017-Oct-26 16:29N 69°41' E 018°60'0 0.0
2017-Oct-26 15:59N 69°41' E 018°60'0 0.0
2017-Oct-26 15:29N 69°41' E 018°60'0 0.0
2017-Oct-26 14:59N 69°41' E 018°60'0 0.0
2017-Oct-26 14:29N 69°41' E 018°60'0 0.0
2017-Oct-26 13:59N 69°41' E 018°60'0 0.0
2017-Oct-26 13:29N 69°41' E 018°60'0 0.0
2017-Oct-26 12:59N 69°41' E 018°60'0 0.0
2017-Oct-26 12:29N 69°41' E 018°60'0 0.0
2017-Oct-26 11:59N 69°41' E 018°60'0 0.0
2017-Oct-26 11:29N 69°41' E 018°60'0 0.0
2017-Oct-26 10:59N 69°41' E 018°60'0 0.0
2017-Oct-26 10:29N 69°41' E 018°60'0 0.0
2017-Oct-26 09:59N 69°41' E 018°60'0 0.0
2017-Oct-26 09:29N 69°41' E 018°60'0 0.0
2017-Oct-26 08:59N 69°41' E 018°60'0 0.0
2017-Oct-26 08:29N 69°41' E 018°60'0 0.0
2017-Oct-26 07:59N 69°41' E 018°60'0 0.0
2017-Oct-26 07:29N 69°41' E 018°60'0 0.0
2017-Oct-26 06:59N 69°41' E 018°60'0 0.0
2017-Oct-26 06:29N 69°41' E 018°60'0 0.0
2017-Oct-26 05:59N 69°41' E 018°60'0 0.0
2017-Oct-26 05:29N 69°41' E 018°60'0 0.0
2017-Oct-26 04:59N 69°41' E 018°60'0 0.0
2017-Oct-26 04:29N 69°41' E 018°60'0 0.0
2017-Oct-26 03:59N 69°41' E 018°60'0 0.0
2017-Oct-26 03:29N 69°41' E 018°60'0 0.0
2017-Oct-26 02:59N 69°41' E 018°60'0 0.0
2017-Oct-26 02:29N 69°41' E 018°60'0 0.0
2017-Oct-26 01:59N 69°41' E 018°60'0 0.0
2017-Oct-26 01:29N 69°41' E 018°60'0 0.0
2017-Oct-26 00:59N 69°41' E 018°60'0 0.0
2017-Oct-26 00:29N 69°41' E 018°60'0 0.0
2017-Oct-25 23:59N 69°41' E 018°60'0 0.0
2017-Oct-25 23:29N 69°41' E 018°60'0 0.0
2017-Oct-25 22:59N 69°41' E 018°60'0 0.0
2017-Oct-25 22:29N 69°41' E 018°60'0 0.0
2017-Oct-25 21:59N 69°41' E 018°60'0 0.0
2017-Oct-25 21:29N 69°41' E 018°60'0 0.0
2017-Oct-25 20:59N 69°41' E 018°60'0 0.0
2017-Oct-25 20:29N 69°41' E 018°60'0 0.0
2017-Oct-25 19:59N 69°41' E 018°60'0 0.0
2017-Oct-25 19:29N 69°41' E 018°60'0 0.0
2017-Oct-25 18:59N 69°41' E 018°60'0 0.0
2017-Oct-25 18:29N 69°41' E 018°60'0 0.0
2017-Oct-25 17:59N 69°41' E 018°60'0 0.0
2017-Oct-25 17:29N 69°41' E 018°60'0 0.0
2017-Oct-25 16:59N 69°41' E 018°60'0 0.0
2017-Oct-25 16:29N 69°41' E 018°60'0 0.0
2017-Oct-25 15:59N 69°41' E 018°60'0 0.0
2017-Oct-25 15:29N 69°41' E 018°60'0 0.0
2017-Oct-25 14:59N 69°41' E 018°60'0 0.0
2017-Oct-25 14:29N 69°41' E 018°60'0 0.0
2017-Oct-25 13:59N 69°41' E 018°60'0 0.0
2017-Oct-25 13:29N 69°41' E 018°60'0 0.0
2017-Oct-25 12:59N 69°41' E 018°60'0 0.0
2017-Oct-25 12:29N 69°41' E 018°60'0 0.0
2017-Oct-25 11:59N 69°41' E 018°60'0 0.0
2017-Oct-25 11:26N 69°41' E 018°60'0 0.0
2017-Oct-25 10:59N 69°41' E 018°60'0 0.0
2017-Oct-25 10:29N 69°41' E 018°60'0 0.0
2017-Oct-25 09:59N 69°41' E 018°60'0 0.0
2017-Oct-25 09:29N 69°41' E 018°60'0 0.0
2017-Oct-25 08:59N 69°41' E 018°60'0 0.0
2017-Oct-25 08:29N 69°41' E 018°60'0 0.0
2017-Oct-25 07:59N 69°41' E 018°60'0 0.0
2017-Oct-25 07:29N 69°41' E 018°60'0 0.0
2017-Oct-25 06:59N 69°41' E 018°60'0 0.0
2017-Oct-25 06:29N 69°41' E 018°60'0 0.0
2017-Oct-25 05:59N 69°41' E 018°60'0 0.0
2017-Oct-25 05:29N 69°41' E 018°60'0 0.0
2017-Oct-25 04:59N 69°41' E 018°60'0 0.0
2017-Oct-25 04:29N 69°41' E 018°60'0 0.0
2017-Oct-25 03:59N 69°41' E 018°60'0 0.0
2017-Oct-25 03:29N 69°41' E 018°60'0 0.0
2017-Oct-25 02:59N 69°41' E 018°60'0 0.0
2017-Oct-25 02:29N 69°41' E 018°60'0 0.0
2017-Oct-25 01:59N 69°41' E 018°60'0 0.0
2017-Oct-25 01:29N 69°41' E 018°60'0 0.0
2017-Oct-25 00:59N 69°41' E 018°60'0 0.0
2017-Oct-25 00:29N 69°41' E 018°60'0 0.0
2017-Oct-24 23:59N 69°41' E 018°60'0 0.0
2017-Oct-24 23:29N 69°41' E 018°60'0 0.0
2017-Oct-24 22:58N 69°41' E 018°60'0 0.0
2017-Oct-24 22:28N 69°41' E 018°60'0 0.0
2017-Oct-24 21:58N 69°41' E 018°60'0 0.0
2017-Oct-24 21:28N 69°41' E 018°60'0 0.0
2017-Oct-24 20:58N 69°41' E 018°60'0 0.0
2017-Oct-24 20:28N 69°41' E 018°60'0 0.0
2017-Oct-24 19:58N 69°41' E 018°60'0 0.0
2017-Oct-24 19:28N 69°41' E 018°60'0 0.0
2017-Oct-24 18:58N 69°41' E 018°60'0 0.0
2017-Oct-24 18:28N 69°41' E 018°60'0 0.0
2017-Oct-24 17:58N 69°41' E 018°60'0 0.0
2017-Oct-24 17:28N 69°41' E 018°60'0 0.0
2017-Oct-24 16:58N 69°41' E 018°60'0 0.0
2017-Oct-24 16:28N 69°41' E 018°60'0 0.0
2017-Oct-24 15:58N 69°41' E 018°60'0 0.0
2017-Oct-24 15:28N 69°41' E 018°60'0 0.0
2017-Oct-24 14:58N 69°41' E 018°60'0 0.0
2017-Oct-24 14:28N 69°41' E 018°60'0 0.0
2017-Oct-24 13:58N 69°41' E 018°60'0 0.0
2017-Oct-24 13:28N 69°41' E 018°60'0 0.0
2017-Oct-24 12:58N 69°41' E 018°60'0 0.0
2017-Oct-24 12:28N 69°41' E 018°60'0 0.0
2017-Oct-24 11:58N 69°41' E 018°60'0 0.0
2017-Oct-24 11:28N 69°41' E 018°60'0 0.0
2017-Oct-24 10:58N 69°41' E 018°60'0 0.0
2017-Oct-24 10:28N 69°41' E 018°60'0 0.0
2017-Oct-24 09:58N 69°41' E 018°60'0 0.0
2017-Oct-24 09:28N 69°41' E 018°60'0 0.0
2017-Oct-24 08:58N 69°41' E 018°60'0 0.0
2017-Oct-24 08:28N 69°41' E 018°60'0 0.0
2017-Oct-24 07:58N 69°41' E 018°60'0 0.0
2017-Oct-24 07:28N 69°41' E 018°60'0 0.0
2017-Oct-24 06:58N 69°41' E 018°60'0 0.0
2017-Oct-24 06:28N 69°41' E 018°60'0 0.0
2017-Oct-24 05:58N 69°41' E 018°60'0 0.0
2017-Oct-24 05:28N 69°41' E 018°60'0 0.0
2017-Oct-24 04:58N 69°41' E 018°60'0 0.0
2017-Oct-24 04:28N 69°41' E 018°60'0 0.0
2017-Oct-24 03:58N 69°41' E 018°60'0 0.0
2017-Oct-24 03:28N 69°41' E 018°60'0 0.0
2017-Oct-24 02:58N 69°41' E 018°60'0 0.0
2017-Oct-24 02:28N 69°41' E 018°60'0 0.0
2017-Oct-24 01:58N 69°41' E 018°60'0 0.0
2017-Oct-24 01:28N 69°41' E 018°60'0 0.0
2017-Oct-24 00:58N 69°41' E 018°60'0 0.0
2017-Oct-24 00:28N 69°41' E 018°60'0 0.0
2017-Oct-23 23:58N 69°41' E 018°60'0 0.0
2017-Oct-23 23:28N 69°41' E 018°60'0 0.0
2017-Oct-23 22:58N 69°41' E 018°60'0 0.0
2017-Oct-23 22:28N 69°41' E 018°60'0 0.0
2017-Oct-23 21:58N 69°41' E 018°60'0 0.0
2017-Oct-23 21:28N 69°41' E 018°60'0 0.0
2017-Oct-23 20:58N 69°41' E 018°60'0 0.0
2017-Oct-23 20:28N 69°41' E 018°60'0 0.0
2017-Oct-23 19:58N 69°41' E 018°60'0 0.0
2017-Oct-23 19:28N 69°41' E 018°60'0 0.0
2017-Oct-23 18:58N 69°41' E 018°60'0 0.0
2017-Oct-23 18:28N 69°41' E 018°60'0 0.0
2017-Oct-23 17:58N 69°41' E 018°60'0 0.0
2017-Oct-23 17:28N 69°41' E 018°60'0 0.0
2017-Oct-23 16:58N 69°41' E 018°60'0 0.0
2017-Oct-23 16:28N 69°41' E 018°60'0 0.0
2017-Oct-23 15:58N 69°41' E 018°60'0 0.0
2017-Oct-23 15:28N 69°41' E 018°60'0 0.0
2017-Oct-23 14:58N 69°41' E 018°60'0 0.0
2017-Oct-23 14:28N 69°41' E 018°60'0 0.0
2017-Oct-23 13:58N 69°41' E 018°60'0 0.0
2017-Oct-23 13:28N 69°41' E 018°60'0 0.0
2017-Oct-23 12:58N 69°41' E 018°60'0 0.0
2017-Oct-23 12:28N 69°41' E 018°60'0 0.0
2017-Oct-23 11:58N 69°41' E 018°60'0 0.0
2017-Oct-23 11:28N 69°41' E 018°60'0 0.0
2017-Oct-23 10:58N 69°41' E 018°60'0 0.0
2017-Oct-23 10:28N 69°41' E 018°60'0 0.0
2017-Oct-23 09:58N 69°41' E 018°60'0 0.0
2017-Oct-23 09:28N 69°41' E 018°60'0 0.0
2017-Oct-23 08:58N 69°41' E 018°60'0 0.0
2017-Oct-23 08:28N 69°41' E 018°60'0 0.0
2017-Oct-23 07:58N 69°41' E 018°60'0 0.0
2017-Oct-23 07:28N 69°41' E 018°60'0 0.0
2017-Oct-23 06:58N 69°41' E 018°60'0 0.0
2017-Oct-23 06:28N 69°41' E 018°60'0 0.0
2017-Oct-23 05:58N 69°41' E 018°60'0 0.0
2017-Oct-23 05:28N 69°41' E 018°60'0 0.0
2017-Oct-23 04:58N 69°41' E 018°60'0 0.0
2017-Oct-23 04:28N 69°41' E 018°60'0 0.0
2017-Oct-23 03:58N 69°41' E 018°60'0 0.0
2017-Oct-23 03:28N 69°41' E 018°60'0 0.0
2017-Oct-23 02:58N 69°41' E 018°60'0 0.0
2017-Oct-23 02:28N 69°41' E 018°60'0 0.0
2017-Oct-23 01:58N 69°41' E 018°60'0 0.0
2017-Oct-23 01:28N 69°41' E 018°60'0 0.0
2017-Oct-23 00:58N 69°41' E 018°60'0 0.0
2017-Oct-23 00:28N 69°41' E 018°60'0 0.0
2017-Oct-22 23:58N 69°41' E 018°60'0 0.0
2017-Oct-22 23:28N 69°41' E 018°60'0 0.0
2017-Oct-22 22:58N 69°41' E 018°60'0 0.0
2017-Oct-22 22:28N 69°41' E 018°60'0 0.0
2017-Oct-22 21:58N 69°41' E 018°60'0 0.0
2017-Oct-22 21:28N 69°41' E 018°60'0 0.0
2017-Oct-22 20:58N 69°41' E 018°60'0 0.0
2017-Oct-22 20:28N 69°41' E 018°60'0 0.0
2017-Oct-22 19:58N 69°41' E 018°60'0 0.0
2017-Oct-22 19:28N 69°41' E 018°60'0 0.0
2017-Oct-22 18:58N 69°41' E 018°60'0 0.0
2017-Oct-22 18:28N 69°41' E 018°60'0 0.0
2017-Oct-22 17:58N 69°41' E 018°60'0 0.0
2017-Oct-22 17:28N 69°41' E 018°60'0 0.0
2017-Oct-22 16:58N 69°41' E 018°60'0 0.0
2017-Oct-22 16:28N 69°41' E 018°60'0 0.0
2017-Oct-22 15:58N 69°41' E 018°60'0 0.0
2017-Oct-22 15:28N 69°41' E 018°60'0 0.0
2017-Oct-22 14:58N 69°41' E 018°60'0 0.0
2017-Oct-22 14:28N 69°41' E 018°60'0 0.0
2017-Oct-22 13:58N 69°41' E 018°60'0 0.0
2017-Oct-22 13:28N 69°41' E 018°60'0 0.0
2017-Oct-22 12:58N 69°41' E 018°60'0 0.0
2017-Oct-22 12:28N 69°41' E 018°60'0 0.0
2017-Oct-22 11:58N 69°41' E 018°60'0 0.0
2017-Oct-22 11:28N 69°41' E 018°60'0 0.0
2017-Oct-22 10:58N 69°41' E 018°60'0 0.0
2017-Oct-22 10:28N 69°41' E 018°60'0 0.0
2017-Oct-22 09:58N 69°41' E 018°60'0 0.0
2017-Oct-22 09:28N 69°41' E 018°60'0 0.0
2017-Oct-22 08:58N 69°41' E 018°60'0 0.0
2017-Oct-22 08:28N 69°41' E 018°60'0 0.0
2017-Oct-22 07:58N 69°41' E 018°60'0 0.0
2017-Oct-22 07:28N 69°41' E 018°60'0 0.0
2017-Oct-22 06:58N 69°41' E 018°60'0 0.0
2017-Oct-22 06:28N 69°41' E 018°60'0 0.0
2017-Oct-22 05:58N 69°41' E 018°60'0 0.0
2017-Oct-22 05:29N 69°41' E 018°60'0 0.0
2017-Oct-22 04:58N 69°41' E 018°60'0 0.0
2017-Oct-22 04:28N 69°41' E 018°60'0 0.0
2017-Oct-22 03:58N 69°41' E 018°60'0 0.0
2017-Oct-22 03:28N 69°41' E 018°60'0 0.0
2017-Oct-22 02:58N 69°41' E 018°60'0 0.0
2017-Oct-22 02:28N 69°41' E 018°60'0 0.0
2017-Oct-22 01:58N 69°41' E 018°60'0 0.0
2017-Oct-22 01:28N 69°41' E 018°60'0 0.0
2017-Oct-22 00:58N 69°41' E 018°60'0 0.0
2017-Oct-22 00:28N 69°41' E 018°60'0 0.0
2017-Oct-21 23:58N 69°41' E 018°60'0 0.0
2017-Oct-21 23:28N 69°41' E 018°60'0 0.0
2017-Oct-21 22:58N 69°41' E 018°60'0 0.0
2017-Oct-21 22:28N 69°41' E 018°60'0 0.0
2017-Oct-21 21:58N 69°41' E 018°60'0 0.0
2017-Oct-21 21:28N 69°41' E 018°60'0 0.0
2017-Oct-21 20:58N 69°41' E 018°60'0 0.0
2017-Oct-21 20:28N 69°41' E 018°60'0 0.0
2017-Oct-21 19:58N 69°41' E 018°60'0 0.0
2017-Oct-21 19:28N 69°41' E 018°60'0 0.0
2017-Oct-21 18:58N 69°41' E 018°60'0 0.0
2017-Oct-21 18:28N 69°41' E 018°60'0 0.0
2017-Oct-21 17:58N 69°41' E 018°60'0 0.0
2017-Oct-21 17:28N 69°41' E 018°60'0 0.0
2017-Oct-21 16:58N 69°41' E 018°60'0 0.0
2017-Oct-21 16:28N 69°41' E 018°60'0 0.0
2017-Oct-21 15:58N 69°41' E 018°60'0 0.0
2017-Oct-21 15:28N 69°41' E 018°60'0 0.0
2017-Oct-21 14:58N 69°41' E 018°60'0 0.0
2017-Oct-21 14:28N 69°41' E 018°60'0 0.0
2017-Oct-21 13:28N 69°41' E 018°60'0 0.0
2017-Oct-21 12:58N 69°41' E 018°60'0 0.0
2017-Oct-21 12:28N 69°41' E 018°60'0 0.0
2017-Oct-21 11:58N 69°41' E 018°60'0 0.0
2017-Oct-21 11:28N 69°41' E 018°60'0 0.0
2017-Oct-21 10:58N 69°41' E 018°60'0 0.0
2017-Oct-21 10:28N 69°41' E 018°60'0 0.0
2017-Oct-21 09:58N 69°41' E 018°60'0 0.0
2017-Oct-21 09:28N 69°41' E 018°60'0 0.0
2017-Oct-21 08:58N 69°41' E 018°60'0 0.0
2017-Oct-21 08:28N 69°41' E 018°60'0 0.0
2017-Oct-21 07:58N 69°41' E 018°60'0 0.0
2017-Oct-21 07:28N 69°41' E 018°60'0 0.0
2017-Oct-21 06:58N 69°41' E 018°60'0 0.0
2017-Oct-21 06:28N 69°41' E 018°60'0 0.0
2017-Oct-21 05:58N 69°41' E 018°60'0 0.0
2017-Oct-21 05:28N 69°41' E 018°60'0 0.0
2017-Oct-21 04:58N 69°41' E 018°60'0 0.0
2017-Oct-21 04:28N 69°41' E 018°60'0 0.0
2017-Oct-21 03:58N 69°41' E 018°60'0 0.0
2017-Oct-21 03:28N 69°41' E 018°60'0 0.0
2017-Oct-21 02:58N 69°41' E 018°60'0 0.0
2017-Oct-21 02:28N 69°41' E 018°60'0 0.0
2017-Oct-21 01:58N 69°41' E 018°60'0 0.0
2017-Oct-21 01:28N 69°41' E 018°60'0 0.0
2017-Oct-21 00:58N 69°41' E 018°60'0 0.0
2017-Oct-21 00:28N 69°41' E 018°60'0 0.0
2017-Oct-20 23:58N 69°41' E 018°60'0 0.0
2017-Oct-20 23:28N 69°41' E 018°60'0 0.0
2017-Oct-20 22:58N 69°41' E 018°60'0 0.0
2017-Oct-20 22:28N 69°41' E 018°60'0 0.0
2017-Oct-20 21:58N 69°41' E 018°60'0 0.0
2017-Oct-20 21:28N 69°41' E 018°60'0 0.0
2017-Oct-20 20:58N 69°41' E 018°60'0 0.0
2017-Oct-20 20:28N 69°41' E 018°60'0 0.0
2017-Oct-20 19:58N 69°41' E 018°60'0 0.0
2017-Oct-20 19:28N 69°41' E 018°60'0 0.0
2017-Oct-20 18:58N 69°41' E 018°60'0 0.0
2017-Oct-20 18:28N 69°41' E 018°60'0 0.0
2017-Oct-20 17:58N 69°41' E 018°60'0 0.0
2017-Oct-20 17:28N 69°41' E 018°60'0 0.0
2017-Oct-20 16:58N 69°41' E 018°60'0 0.0
2017-Oct-20 16:28N 69°41' E 018°60'0 0.0
2017-Oct-20 15:58N 69°41' E 018°60'0 0.0
2017-Oct-20 15:28N 69°41' E 018°60'0 0.0
2017-Oct-20 14:58N 69°41' E 018°60'0 0.0
2017-Oct-20 13:58N 69°41' E 018°60'0 0.0
2017-Oct-20 13:28N 69°41' E 018°60'0 0.0
2017-Oct-20 12:58N 69°41' E 018°60'0 0.0
2017-Oct-20 12:28N 69°41' E 018°60'0 0.0
2017-Oct-20 11:58N 69°41' E 018°60'0 0.0
2017-Oct-20 11:28N 69°41' E 018°60'0 0.0
2017-Oct-20 10:58N 69°41' E 018°60'0 0.0
2017-Oct-20 10:28N 69°41' E 018°60'0 0.0
2017-Oct-20 09:58N 69°41' E 018°60'0 0.0
2017-Oct-20 09:31N 69°41' E 018°60'0 0.0
2017-Oct-20 09:01N 69°41' E 018°60'0 0.0
2017-Oct-20 08:31N 69°41' E 018°60'0 0.0
2017-Oct-20 08:01N 69°41' E 018°60'0 0.0
2017-Oct-20 07:31N 69°41' E 018°60'0 0.0
2017-Oct-20 07:00N 69°41' E 018°60'0 0.0
2017-Oct-20 06:30N 69°41' E 018°60'0 0.0
2017-Oct-20 06:01N 69°41' E 018°60'0 0.0
2017-Oct-20 05:30N 69°41' E 018°60'0 0.0
2017-Oct-20 05:00N 69°41' E 018°60'0 0.0
2017-Oct-20 04:30N 69°41' E 018°60'0 0.0
2017-Oct-20 04:00N 69°41' E 018°60'0 0.0
2017-Oct-20 03:30N 69°41' E 018°60'0 0.0
2017-Oct-20 03:00N 69°41' E 018°60'0 0.0
2017-Oct-20 02:30N 69°41' E 018°60'0 0.0
2017-Oct-20 02:00N 69°41' E 018°60'0 0.0
2017-Oct-20 01:30N 69°41' E 018°60'0 0.0
2017-Oct-20 01:00N 69°41' E 018°60'0 0.0
2017-Oct-20 00:30N 69°41' E 018°60'0 0.0
2017-Oct-20 00:00N 69°41' E 018°60'0 0.0
2017-Oct-19 23:30N 69°41' E 018°60'0 0.0
2017-Oct-19 23:00N 69°41' E 018°60'0 0.0
2017-Oct-19 22:30N 69°41' E 018°60'0 0.0
2017-Oct-19 22:00N 69°41' E 018°60'0 0.0
2017-Oct-19 21:30N 69°41' E 018°60'0 0.0
2017-Oct-19 21:00N 69°41' E 018°60'0 0.0
2017-Oct-19 20:30N 69°41' E 018°60'0 0.0
2017-Oct-19 20:00N 69°41' E 018°60'0 0.0
2017-Oct-19 19:30N 69°41' E 018°60'0 0.0
2017-Oct-19 19:00N 69°41' E 018°60'0 0.0
2017-Oct-19 18:30N 69°41' E 018°60'0 0.0
2017-Oct-19 18:00N 69°41' E 018°60'0 0.0
2017-Oct-19 17:30N 69°41' E 018°60'0 0.0
2017-Oct-19 17:00N 69°41' E 018°60'0 0.0
2017-Oct-19 16:30N 69°41' E 018°60'0 0.0
2017-Oct-19 16:00N 69°41' E 018°60'0 0.0
2017-Oct-19 15:30N 69°41' E 018°60'0 0.0
2017-Oct-19 15:00N 69°41' E 018°60'0 0.0
2017-Oct-19 14:30N 69°41' E 018°60'0 0.0
2017-Oct-19 14:00N 69°41' E 018°60'0 0.0
2017-Oct-19 13:30N 69°41' E 018°60'0 0.0
2017-Oct-19 13:00N 69°41' E 018°60'0 0.0
2017-Oct-19 12:30N 69°41' E 018°60'0 0.0
2017-Oct-19 12:00N 69°41' E 018°60'0 0.0
2017-Oct-19 11:30N 69°41' E 018°60'0 0.0
2017-Oct-19 11:00N 69°41' E 018°60'0 0.0
2017-Oct-19 10:30N 69°41' E 018°60'0 0.0
2017-Oct-19 10:00N 69°41' E 018°60'0 0.0
2017-Oct-19 09:30N 69°41' E 018°60'0 0.0
2017-Oct-19 09:00N 69°41' E 018°60'0 0.0
2017-Oct-19 08:30N 69°41' E 018°60'0 0.0
2017-Oct-19 08:00N 69°41' E 018°60'  

Dump ship's entire track history